ADDS METAR Data INFO
IDs: Format: Raw Decoded Include TAF

Data at: 0258 UTC 17 Jan 2018

KTDF 170235Z AUTO 00000KT 10SM OVC110 00/M03 A3033 RMK AO2
KTDF 170215Z AUTO 00000KT 10SM OVC110 00/M03 A3033 RMK AO2
KTDF 170155Z AUTO 00000KT 10SM OVC110 00/M05 A3033 RMK AO2
KTDF 170135Z AUTO 00000KT 10SM BKN110 00/M04 A3034 RMK AO2
KTDF 170115Z AUTO 00000KT 10SM CLR 00/M05 A3033 RMK AO2
KTDF 170055Z AUTO 00000KT 10SM CLR 00/M05 A3033 RMK AO2
KTDF 170035Z AUTO 00000KT 10SM CLR 00/M05 A3034 RMK AO2
KTDF 170015Z AUTO 00000KT 10SM CLR 00/M05 A3034 RMK AO2
KTDF 162355Z AUTO 00000KT 10SM CLR 00/M05 A3035 RMK AO2
KTDF 162335Z AUTO 00000KT 10SM CLR 01/M05 A3034 RMK AO2
KTDF 162315Z AUTO 00000KT 10SM CLR 01/M06 A3034 RMK AO2
KTDF 162255Z AUTO 00000KT 10SM CLR 02/M05 A3034 RMK AO2
KTDF 162235Z AUTO 00000KT 10SM CLR 03/M05 A3035 RMK AO2
KTDF 162215Z AUTO 00000KT 10SM CLR 05/M06 A3035 RMK AO2
KTDF 162155Z AUTO 00000KT 10SM CLR 06/M06 A3035 RMK AO2
KTDF 162135Z AUTO 22004KT 10SM CLR 06/M06 A3034 RMK AO2
KTDF 162115Z AUTO 20004KT 10SM CLR 06/M06 A3034 RMK AO2
KTDF 162055Z AUTO 24003KT 10SM CLR 07/M07 A3034 RMK AO2
KTDF 162035Z AUTO 23003KT 10SM CLR 07/M07 A3034 RMK AO2
KTDF 162015Z AUTO 21004KT 10SM CLR 07/M07 A3034 RMK AO2
KTDF 161955Z AUTO 00000KT 10SM CLR 06/M07 A3035 RMK AO2
KTDF 161935Z AUTO 26004KT 10SM CLR 06/M07 A3035 RMK AO2
KTDF 161915Z AUTO 21006KT 10SM CLR 06/M07 A3035 RMK AO2
KTDF 161855Z AUTO 23006KT 10SM CLR 06/M08 A3037 RMK AO2
KTDF 161815Z AUTO 22006KT 10SM CLR 06/M08 A3039 RMK AO2
KTDF 161755Z AUTO 21003KT 10SM CLR 05/M08 A3040 RMK AO2
KTDF 161735Z AUTO 00000KT 10SM CLR 05/M09 A3042 RMK AO2
KTDF 161715Z AUTO 23006KT 10SM CLR 05/M09 A3043 RMK AO2
KTDF 161655Z AUTO 24003KT 10SM CLR 04/M10 A3045 RMK AO2
KTDF 161635Z AUTO 23003KT 10SM CLR 03/M09 A3046 RMK AO2
KTDF 161615Z AUTO 00000KT 10SM CLR 03/M10 A3047 RMK AO2
KTDF 161555Z AUTO 20003KT 10SM CLR 02/M09 A3048 RMK AO2
KTDF 161535Z AUTO 20003KT 10SM CLR 01/M08 A3049 RMK AO2
KTDF 161515Z AUTO 19003KT 10SM CLR 00/M07 A3050 RMK AO2
KTDF 161455Z AUTO 20003KT 10SM CLR 00/M07 A3050 RMK AO2
KTDF 161435Z AUTO 00000KT 10SM CLR M02/M07 A3050 RMK AO2
KTDF 161415Z AUTO 00000KT 10SM CLR M03/M06 A3050 RMK AO2
KTDF 161355Z AUTO 00000KT 10SM CLR M05/M06 A3048 RMK AO2
KTDF 161335Z AUTO 00000KT 10SM CLR M06/M07 A3047 RMK AO2
KTDF 161315Z AUTO 00000KT 10SM CLR M07/M08 A3047 RMK AO2
KTDF 161255Z AUTO 00000KT 10SM CLR M08/M09 A3046 RMK AO2
KTDF 161235Z AUTO 00000KT 10SM CLR M09/M10 A3045 RMK AO2
KTDF 161215Z AUTO 00000KT 10SM CLR M09/M10 A3045 RMK AO2
KTDF 161155Z AUTO 00000KT 10SM CLR M09/M10 A3045 RMK AO2
KTDF 161135Z AUTO 00000KT 10SM CLR M08/M10 A3045 RMK AO2
KTDF 161115Z AUTO 00000KT 10SM CLR M08/M10 A3045 RMK AO2
KTDF 161055Z AUTO 00000KT 10SM CLR M08/M09 A3045 RMK AO2
KTDF 161035Z AUTO 00000KT 10SM CLR M08/M10 A3045 RMK AO2
KTDF 161015Z AUTO 00000KT 10SM CLR M08/M09 A3045 RMK AO2
KTDF 160955Z AUTO 00000KT 10SM CLR M08/M09 A3045 RMK AO2
KTDF 160935Z AUTO 00000KT 10SM CLR M08/M09 A3045 RMK AO2
KTDF 160915Z AUTO 00000KT 10SM CLR M08/M08 A3046 RMK AO2
KTDF 160855Z AUTO 00000KT 10SM CLR M08/M09 A3045 RMK AO2
KTDF 160835Z AUTO 00000KT 10SM CLR M08/M09 A3046 RMK AO2
KTDF 160815Z AUTO 00000KT 10SM CLR M07/M08 A3045 RMK AO2
KTDF 160755Z AUTO 00000KT 10SM CLR M08/M09 A3046 RMK AO2
KTDF 160735Z AUTO 00000KT 10SM CLR M08/M09 A3045 RMK AO2
KTDF 160715Z AUTO 00000KT 10SM CLR M08/M08 A3045 RMK AO2
KTDF 160655Z AUTO 00000KT 10SM CLR M07/M09 A3045 RMK AO2
KTDF 160635Z AUTO 00000KT 10SM CLR M08/M09 A3046 RMK AO2
KTDF 160615Z AUTO 00000KT 10SM CLR M07/M08 A3045 RMK AO2
KTDF 160555Z AUTO 00000KT 10SM CLR M07/M08 A3046 RMK AO2
KTDF 160535Z AUTO 00000KT 10SM CLR M07/M08 A3047 RMK AO2
KTDF 160515Z AUTO 00000KT 10SM CLR M07/M08 A3047 RMK AO2
KTDF 160455Z AUTO 00000KT 10SM CLR M07/M08 A3047 RMK AO2
KTDF 160435Z AUTO 00000KT 10SM CLR M07/M08 A3047 RMK AO2
KTDF 160415Z AUTO 00000KT 10SM CLR M07/M08 A3048 RMK AO2
KTDF 160355Z AUTO 00000KT 10SM CLR M06/M08 A3048 RMK AO2
KTDF 160335Z AUTO 00000KT 10SM CLR M06/M08 A3048 RMK AO2
KTDF 160315Z AUTO 00000KT 10SM CLR M06/M08 A3048 RMK AO2
KTDF 160255Z AUTO 00000KT 10SM CLR M05/M08 A3048 RMK AO2
KTDF 160235Z AUTO 00000KT 10SM CLR M05/M08 A3048 RMK AO2
KTDF 160215Z AUTO 00000KT 10SM CLR M05/M08 A3048 RMK AO2
KTDF 160155Z AUTO 00000KT 10SM CLR M05/M08 A3047 RMK AO2
KTDF 160135Z AUTO 00000KT 10SM CLR M05/M08 A3048 RMK AO2
KTDF 160115Z AUTO 00000KT 10SM CLR M05/M08 A3047 RMK AO2
KTDF 160055Z AUTO 00000KT 10SM CLR M04/M08 A3047 RMK AO2
KTDF 160035Z AUTO 00000KT 10SM CLR M04/M10 A3047 RMK AO2
KTDF 160015Z AUTO 00000KT 10SM CLR M03/M09 A3047 RMK AO2
KTDF 152355Z AUTO 00000KT 10SM CLR M03/M09 A3047 RMK AO2
KTDF 152335Z AUTO 00000KT 10SM CLR M03/M10 A3047 RMK AO2
KTDF 152315Z AUTO 00000KT 10SM CLR M02/M10 A3046 RMK AO2
KTDF 152255Z AUTO 00000KT 10SM CLR M01/M10 A3046 RMK AO2
KTDF 152235Z AUTO 00000KT 10SM CLR 00/M11 A3046 RMK AO2
KTDF 152215Z AUTO 00000KT 10SM CLR 00/M11 A3046 RMK AO2
KTDF 152155Z AUTO 00000KT 10SM CLR 01/M11 A3044 RMK AO2
KTDF 152135Z AUTO 00000KT 10SM CLR 01/M11 A3045 RMK AO2
KTDF 152115Z AUTO 00000KT 10SM CLR 01/M12 A3045 RMK AO2
KTDF 152055Z AUTO 04003KT 10SM CLR 01/M12 A3044 RMK AO2
KTDF 152035Z AUTO 01003KT 10SM CLR 01/M12 A3044 RMK AO2
KTDF 152015Z AUTO 00000KT 10SM CLR 01/M11 A3045 RMK AO2
KTDF 151955Z AUTO 30004KT 10SM CLR 01/M11 A3045 RMK AO2
KTDF 151935Z AUTO 29003KT 10SM CLR 01/M10 A3045 RMK AO2
KTDF 151915Z AUTO 00000KT 10SM CLR 01/M10 A3046 RMK AO2
KTDF 151855Z AUTO 31004KT 10SM CLR 01/M09 A3045 RMK AO2
KTDF 151835Z AUTO 00000KT 10SM CLR 00/M09 A3045 RMK AO2
KTDF 151815Z AUTO 31003KT 10SM CLR 00/M09 A3046 RMK AO2
KTDF 151755Z AUTO 04003KT 10SM CLR 00/M10 A3047 RMK AO2
KTDF 151735Z AUTO 00000KT 10SM CLR 00/M10 A3049 RMK AO2
KTDF 151715Z AUTO 00000KT 10SM CLR M02/M11 A3051 RMK AO2
KTDF 151655Z AUTO 33004KT 10SM CLR M02/M11 A3053 RMK AO2
KTDF 151635Z AUTO 35003KT 10SM CLR M02/M11 A3055 RMK AO2
KTDF 151615Z AUTO 33004KT 10SM CLR M03/M11 A3055 RMK AO2
KTDF 151555Z AUTO 36003KT 10SM CLR M03/M12 A3056 RMK AO2
KTDF 151535Z AUTO 04005KT 10SM CLR M04/M13 A3056 RMK AO2
KTDF 151515Z AUTO 33005KT 10SM CLR M05/M13 A3058 RMK AO2